Time;durP1;ratioP1;P1;durP2;ratioP2;P2;SDS_P1;SDS_P2;PMS_P1;PMS_P2;Temp;Humidity;BMP_temperature;BMP_pressure;BME280_temperature;BME280_humidity;BME280_pressure;Samples;Min_cycle;Max_cycle;Signal;HPM_P1;HPM_P2
2022/11/26 00:00:51;;;;;;;37.95;15.00;;;10.20;71.50;;;;;;7380534;19;20950;-85
2022/11/26 00:03:20;;;;;;;38.05;14.77;;;10.10;71.20;;;;;;7380239;19;20086;-85
2022/11/26 00:05:53;;;;;;;37.58;14.40;;;10.10;71.10;;;;;;7380483;19;20023;-84
2022/11/26 00:08:25;;;;;;;38.50;13.38;;;10.10;71.10;;;;;;7379820;19;20543;-85
2022/11/26 00:10:55;;;;;;;36.85;14.60;;;10.00;71.20;;;;;;7380532;19;20015;-85
2022/11/26 00:13:26;;;;;;;36.33;14.25;;;9.90;71.30;;;;;;7398562;19;20029;-85
2022/11/26 00:15:56;;;;;;;43.20;15.87;;;9.90;71.50;;;;;;7380827;19;20194;-84
2022/11/26 00:18:25;;;;;;;50.95;14.23;;;9.90;71.30;;;;;;7381129;19;20817;-85
2022/11/26 00:21:01;;;;;;;35.90;13.02;;;9.80;71.60;;;;;;7381249;19;20037;-84
2022/11/26 00:23:30;;;;;;;27.38;12.45;;;9.80;71.90;;;;;;7382430;19;20031;-84
2022/11/26 00:26:02;;;;;;;31.27;12.15;;;9.80;71.70;;;;;;7386915;19;20019;-85
2022/11/26 00:28:33;;;;;;;29.40;10.60;;;9.80;71.70;;;;;;7401902;19;20026;-84
2022/11/26 00:31:03;;;;;;;32.13;10.40;;;9.80;71.60;;;;;;7378463;19;20019;-84
2022/11/26 00:33:32;;;;;;;31.10;11.20;;;9.80;71.50;;;;;;7378515;19;20025;-84
2022/11/26 00:36:08;;;;;;;35.30;11.23;;;9.80;71.40;;;;;;7376841;19;20019;-84
2022/11/26 00:38:37;;;;;;;25.15;9.57;;;9.80;71.40;;;;;;7377510;19;20373;-84
2022/11/26 00:41:05;;;;;;;29.25;9.77;;;9.90;71.20;;;;;;7375850;19;20146;-85
2022/11/26 00:43:34;;;;;;;24.83;10.25;;;9.80;71.10;;;;;;7399559;19;20032;-84
2022/11/26 00:46:03;;;;;;;33.50;10.70;;;9.90;71.00;;;;;;7375231;19;20031;-82
2022/11/26 00:48:32;;;;;;;25.63;10.32;;;9.90;71.00;;;;;;7376196;19;20109;-83
2022/11/26 00:51:03;;;;;;;20.33;8.70;;;9.90;70.90;;;;;;7375987;19;20018;-85
2022/11/26 00:53:32;;;;;;;22.17;10.07;;;9.90;70.60;;;;;;7375501;19;20015;-85
2022/11/26 00:56:00;;;;;;;27.20;10.20;;;9.80;70.50;;;;;;7376550;19;20629;-85
2022/11/26 00:58:31;;;;;;;27.85;10.40;;;9.80;70.30;;;;;;7400699;19;20090;-85
2022/11/26 01:01:01;;;;;;;30.10;9.95;;;9.80;70.60;;;;;;7375192;19;20029;-86
2022/11/26 01:03:30;;;;;;;32.20;9.27;;;9.70;70.90;;;;;;7379214;19;20098;-86
2022/11/26 01:06:03;;;;;;;25.23;10.63;;;9.70;70.70;;;;;;7377923;19;20011;-85
2022/11/26 01:08:34;;;;;;;32.47;12.07;;;9.70;70.50;;;;;;7376224;19;20106;-85
2022/11/26 01:11:05;;;;;;;33.42;12.48;;;9.70;70.50;;;;;;7377196;19;20399;-84
2022/11/26 01:13:34;;;;;;;28.30;11.77;;;9.70;70.60;;;;;;7397268;19;20034;-85
2022/11/26 01:16:08;;;;;;;27.15;10.63;;;9.70;70.90;;;;;;7377910;19;20011;-85
2022/11/26 01:18:37;;;;;;;33.33;11.27;;;9.70;70.60;;;;;;7378587;19;20545;-85
2022/11/26 01:21:11;;;;;;;28.83;10.13;;;9.70;70.50;;;;;;7382383;19;20030;-85
2022/11/26 01:23:40;;;;;;;29.77;10.57;;;9.70;70.50;;;;;;7387987;19;20018;-85
2022/11/26 01:26:15;;;;;;;27.98;10.00;;;9.70;70.50;;;;;;7391138;19;20038;-83
2022/11/26 01:28:43;;;;;;;33.13;11.48;;;9.70;70.40;;;;;;7405133;19;20087;-83
2022/11/26 01:31:17;;;;;;;28.48;10.35;;;9.70;69.90;;;;;;7394851;19;20018;-84
2022/11/26 01:33:47;;;;;;;36.50;11.05;;;9.60;70.30;;;;;;7387627;19;20621;-84
2022/11/26 01:36:27;;;;;;;26.60;9.60;;;9.60;71.20;;;;;;7383048;19;20023;-86
2022/11/26 01:38:57;;;;;;;32.90;9.45;;;9.60;70.60;;;;;;7381529;19;20085;-86
2022/11/26 01:41:42;;;;;;;27.70;9.82;;;9.60;70.60;;;;;;7382110;19;20437;-86
2022/11/26 01:44:19;;;;;;;39.55;10.77;;;9.60;70.40;;;;;;7382089;19;20021;-85
2022/11/26 01:46:49;;;;;;;31.17;10.18;;;9.60;70.60;;;;;;7387927;19;20024;-85
2022/11/26 01:49:24;;;;;;;27.63;10.02;;;9.50;70.10;;;;;;7409525;19;20019;-87
2022/11/26 01:52:02;;;;;;;23.90;10.02;;;9.50;70.50;;;;;;7379889;19;20501;-85
2022/11/26 01:54:33;;;;;;;28.35;10.35;;;9.50;70.80;;;;;;7376900;19;20055;-84
2022/11/26 01:57:11;;;;;;;26.45;10.02;;;9.50;70.50;;;;;;7377965;19;20517;-85
2022/11/26 01:59:43;;;;;;;30.33;12.02;;;9.50;70.60;;;;;;7377669;19;20082;-85
2022/11/26 02:02:12;;;;;;;27.65;11.50;;;9.50;70.70;;;;;;7377023;19;20357;-85
2022/11/26 02:04:46;;;;;;;24.90;11.40;;;9.50;70.70;;;;;;7396022;19;20019;-85
2022/11/26 02:07:17;;;;;;;28.63;10.15;;;9.50;70.80;;;;;;7374787;19;20039;-87
2022/11/26 02:09:46;;;;;;;;;;;9.50;70.70;;;;;;7375550;19;20033;-86
2022/11/26 02:12:15;;;;;;;33.92;10.35;;;9.50;70.50;;;;;;7376494;19;19950;-87
2022/11/26 02:14:45;;;;;;;26.50;11.38;;;9.50;70.40;;;;;;7378979;19;20350;-86
2022/11/26 02:17:21;;;;;;;30.88;10.55;;;9.50;70.40;;;;;;7380111;19;20038;-85
2022/11/26 02:20:22;;;;;;;27.80;11.38;;;9.50;70.70;;;;;;7377959;19;20046;-86
2022/11/26 02:23:29;;;;;;;22.65;10.65;;;9.40;70.70;;;;;;7379186;19;20022;-84
2022/11/26 02:26:28;;;;;;;25.55;11.02;;;9.40;70.70;;;;;;7377123;19;20011;-86
2022/11/26 02:29:12;;;;;;;25.38;11.52;;;9.40;70.60;;;;;;7373341;19;20038;-85
2022/11/26 02:31:50;;;;;;;32.92;11.60;;;9.40;70.40;;;;;;7395720;19;20022;-85
2022/11/26 02:34:24;;;;;;;31.90;10.55;;;9.40;70.40;;;;;;7376881;19;20118;-85
2022/11/26 02:36:57;;;;;;;19.73;9.10;;;9.40;70.60;;;;;;7375715;19;20106;-85
2022/11/26 02:39:28;;;;;;;24.73;10.52;;;9.50;70.80;;;;;;7375448;19;20014;-85
2022/11/26 02:41:59;;;;;;;31.02;10.73;;;9.50;70.80;;;;;;7373200;19;20018;-84
2022/11/26 02:44:32;;;;;;;20.35;9.52;;;9.50;70.30;;;;;;7375395;19;20018;-85
2022/11/26 02:47:09;;;;;;;22.60;10.50;;;9.50;70.00;;;;;;7371388;19;20538;-85
2022/11/26 02:49:40;;;;;;;27.58;10.10;;;9.40;70.10;;;;;;7394750;19;20011;-85
2022/11/26 02:52:11;;;;;;;32.70;10.70;;;9.40;70.30;;;;;;7374382;19;20520;-86
2022/11/26 02:54:41;;;;;;;34.53;11.35;;;9.40;70.40;;;;;;7375615;19;20026;-85
2022/11/26 02:57:15;;;;;;;32.40;11.38;;;9.40;70.40;;;;;;7373088;19;20021;-86
2022/11/26 02:59:44;;;;;;;34.42;11.90;;;9.40;70.40;;;;;;7372694;19;20011;-85
2022/11/26 03:02:21;;;;;;;28.40;9.98;;;9.40;70.40;;;;;;7374777;19;20038;-84
2022/11/26 03:04:54;;;;;;;43.30;11.18;;;9.30;70.50;;;;;;7371698;19;20018;-84
2022/11/26 03:07:23;;;;;;;51.60;12.20;;;9.30;70.90;;;;;;7395980;19;20039;-85
2022/11/26 03:09:53;;;;;;;34.67;12.15;;;9.30;71.00;;;;;;7376749;19;20015;-85
2022/11/26 03:12:22;;;;;;;31.80;10.85;;;9.30;70.90;;;;;;7383936;19;20139;-86
2022/11/26 03:14:51;;;;;;;38.13;11.23;;;9.30;71.00;;;;;;7383992;19;20023;-84
2022/11/26 03:17:27;;;;;;;34.35;11.70;;;9.30;71.30;;;;;;7374526;19;20026;-85
2022/11/26 03:19:55;;;;;;;28.05;11.35;;;9.30;71.30;;;;;;7373629;19;20090;-84
2022/11/26 03:22:24;;;;;;;25.83;11.80;;;9.30;71.80;;;;;;7395863;19;20094;-84
2022/11/26 03:24:53;;;;;;;33.03;11.38;;;9.30;70.80;;;;;;7375998;19;20031;-84
2022/11/26 03:27:21;;;;;;;37.75;10.45;;;9.30;70.90;;;;;;7377758;19;20019;-84
2022/11/26 03:29:50;;;;;;;32.15;10.15;;;9.20;70.90;;;;;;7375602;19;20387;-84
2022/11/26 03:32:19;;;;;;;27.48;10.63;;;9.20;70.90;;;;;;7382736;19;20018;-85
2022/11/26 03:34:50;;;;;;;29.50;11.00;;;9.20;71.30;;;;;;7380175;19;20018;-83
2022/11/26 03:37:19;;;;;;;25.15;10.38;;;9.20;71.10;;;;;;7405854;19;20036;-85
2022/11/26 03:39:48;;;;;;;33.90;11.48;;;9.20;71.10;;;;;;7376929;19;20019;-85
2022/11/26 03:42:16;;;;;;;25.63;9.90;;;9.20;70.80;;;;;;7377719;19;20525;-85
2022/11/26 03:44:45;;;;;;;30.38;10.85;;;9.20;70.80;;;;;;7376539;19;20003;-84
2022/11/26 03:47:14;;;;;;;29.83;10.38;;;9.20;70.80;;;;;;7375118;19;20037;-84
2022/11/26 03:49:43;;;;;;;38.50;9.95;;;9.10;71.20;;;;;;7396114;19;20082;-84
2022/11/26 03:52:14;;;;;;;28.40;10.52;;;9.10;71.40;;;;;;7375425;19;20441;-84
2022/11/26 03:54:43;;;;;;;28.60;10.70;;;9.00;71.30;;;;;;7373463;19;20074;-84
2022/11/26 03:57:11;;;;;;;26.48;10.23;;;9.00;71.30;;;;;;7375478;19;20085;-84
2022/11/26 03:59:40;;;;;;;33.92;11.13;;;9.00;71.40;;;;;;7373160;19;20102;-85
2022/11/26 04:02:09;;;;;;;21.58;9.95;;;9.00;71.30;;;;;;7375315;19;20356;-84
2022/11/26 04:04:38;;;;;;;25.85;9.85;;;9.00;71.60;;;;;;7393680;19;20042;-84
2022/11/26 04:07:07;;;;;;;27.13;9.57;;;8.90;71.70;;;;;;7372627;19;20031;-84
2022/11/26 04:09:38;;;;;;;26.55;9.93;;;9.00;72.00;;;;;;7371825;19;20019;-84
2022/11/26 04:12:07;;;;;;;29.42;10.25;;;9.00;71.90;;;;;;7372550;19;20010;-84
2022/11/26 04:14:36;;;;;;;36.42;9.45;;;9.00;71.80;;;;;;7371947;19;20019;-84
2022/11/26 04:17:05;;;;;;;30.85;9.20;;;9.00;71.70;;;;;;7371778;19;20089;-84
2022/11/26 04:19:33;;;;;;;27.33;9.43;;;9.00;72.00;;;;;;7392952;19;20528;-85
2022/11/26 04:22:02;;;;;;;34.30;10.63;;;9.10;71.80;;;;;;7370890;19;20371;-86
2022/11/26 04:24:31;;;;;;;28.15;9.00;;;9.10;71.70;;;;;;7370909;19;20442;-85
2022/11/26 04:27:02;;;;;;;19.98;8.60;;;9.10;71.60;;;;;;7372454;19;20453;-84
2022/11/26 04:29:31;;;;;;;31.60;8.60;;;9.10;71.60;;;;;;7372579;19;20093;-84
2022/11/26 04:32:00;;;;;;;27.48;9.25;;;9.10;71.70;;;;;;7372296;19;20032;-84
2022/11/26 04:34:28;;;;;;;23.48;9.50;;;9.10;72.00;;;;;;7398975;19;20014;-84
2022/11/26 04:36:58;;;;;;;20.98;9.30;;;9.10;71.90;;;;;;7379826;19;20073;-84
2022/11/26 04:39:26;;;;;;;26.30;8.65;;;9.10;71.70;;;;;;7378056;19;20287;-85
2022/11/26 04:41:55;;;;;;;22.17;8.93;;;9.10;71.70;;;;;;7378495;19;20017;-84
2022/11/26 04:44:26;;;;;;;33.80;8.32;;;9.10;71.50;;;;;;7381362;19;20014;-84
2022/11/26 04:46:55;;;;;;;;;;;9.10;71.70;;;;;;7379705;19;20109;-84
2022/11/26 04:49:24;;;;;;;21.27;9.02;;;9.10;71.80;;;;;;7397755;19;19930;-85
2022/11/26 04:51:52;;;;;;;24.83;8.48;;;9.10;71.70;;;;;;7378235;19;20086;-85
2022/11/26 04:54:21;;;;;;;28.92;9.15;;;9.10;71.30;;;;;;7379497;19;20433;-85
2022/11/26 04:56:50;;;;;;;20.85;9.18;;;9.10;71.30;;;;;;7377936;19;20125;-84
2022/11/26 04:59:18;;;;;;;28.08;10.18;;;9.10;71.60;;;;;;7378603;19;20026;-84
2022/11/26 05:01:50;;;;;;;30.83;10.13;;;9.10;71.60;;;;;;7377148;19;20094;-84
2022/11/26 05:04:19;;;;;;;22.23;8.55;;;9.10;71.70;;;;;;7397039;19;20087;-85
2022/11/26 05:06:48;;;;;;;26.55;9.15;;;9.10;71.30;;;;;;7378058;19;20014;-84
2022/11/26 05:09:16;;;;;;;24.27;9.25;;;9.10;71.60;;;;;;7374373;19;20010;-85
2022/11/26 05:11:45;;;;;;;23.75;9.70;;;9.10;71.70;;;;;;7377629;19;20025;-85
2022/11/26 05:14:14;;;;;;;27.15;9.30;;;9.10;71.70;;;;;;7379396;19;20411;-85
2022/11/26 05:16:43;;;;;;;26.50;9.90;;;9.20;71.70;;;;;;7400863;19;20078;-84
2022/11/26 05:19:14;;;;;;;24.83;9.70;;;9.20;71.40;;;;;;7383240;19;20066;-84
2022/11/26 05:21:42;;;;;;;;;;;9.20;71.30;;;;;;7382510;19;20010;-84
2022/11/26 05:24:11;;;;;;;24.45;10.13;;;9.20;71.30;;;;;;7378490;19;20560;-85
2022/11/26 05:26:40;;;;;;;31.15;9.50;;;9.20;71.20;;;;;;7381017;19;20027;-85
2022/11/26 05:29:09;;;;;;;29.55;10.27;;;9.20;71.30;;;;;;7379664;19;20031;-84
2022/11/26 05:31:37;;;;;;;25.02;9.75;;;9.30;71.00;;;;;;7399813;19;20027;-85
2022/11/26 05:34:06;;;;;;;32.28;10.32;;;9.30;71.00;;;;;;7381953;19;20014;-85
2022/11/26 05:36:38;;;;;;;27.52;10.18;;;9.30;71.10;;;;;;7386758;19;20022;-84
2022/11/26 05:39:06;;;;;;;23.17;8.68;;;9.30;71.00;;;;;;7385537;19;20018;-85
2022/11/26 05:41:35;;;;;;;25.58;9.27;;;9.40;70.80;;;;;;7383968;19;20043;-85
2022/11/26 05:44:04;;;;;;;26.67;8.98;;;9.40;70.60;;;;;;7384186;19;20018;-84
2022/11/26 05:46:33;;;;;;;24.98;9.90;;;9.40;70.60;;;;;;7403292;19;20014;-85
2022/11/26 05:49:01;;;;;;;16.77;8.27;;;9.40;70.50;;;;;;7374852;19;20474;-84
2022/11/26 05:51:30;;;;;;;27.13;9.13;;;9.40;70.80;;;;;;7374817;19;20022;-84
2022/11/26 05:54:02;;;;;;;20.70;9.05;;;9.40;71.00;;;;;;7375518;19;20110;-84
2022/11/26 05:56:30;;;;;;;;;;;9.30;70.80;;;;;;7376823;19;20453;-84
2022/11/26 05:58:59;;;;;;;29.20;10.23;;;9.30;71.00;;;;;;7378403;19;19928;-85
2022/11/26 06:01:27;;;;;;;23.38;9.93;;;9.30;71.00;;;;;;7396930;19;20022;-84
2022/11/26 06:03:56;;;;;;;43.15;12.65;;;9.30;71.30;;;;;;7375983;19;20078;-84
2022/11/26 06:06:25;;;;;;;29.45;10.50;;;9.20;71.40;;;;;;7375782;19;20093;-84
2022/11/26 06:08:53;;;;;;;20.17;9.05;;;9.20;71.70;;;;;;7375397;19;20443;-83
2022/11/26 06:11:25;;;;;;;26.00;9.73;;;9.20;71.90;;;;;;7374848;19;20018;-83
2022/11/26 06:13:53;;;;;;;25.38;9.98;;;9.30;72.10;;;;;;7375238;19;20023;-83
2022/11/26 06:16:22;;;;;;;31.10;9.10;;;9.30;72.00;;;;;;7396357;19;20020;-83
2022/11/26 06:18:51;;;;;;;22.55;7.93;;;9.40;71.90;;;;;;7375254;19;20077;-84
2022/11/26 06:21:20;;;;;;;20.88;8.20;;;9.40;71.70;;;;;;7376559;19;20059;-83
2022/11/26 06:23:48;;;;;;;18.50;8.00;;;9.30;71.60;;;;;;7375153;19;20306;-84
2022/11/26 06:26:17;;;;;;;24.20;8.10;;;9.30;71.70;;;;;;7375136;19;20018;-84
2022/11/26 06:28:48;;;;;;;22.75;7.63;;;9.30;71.90;;;;;;7388802;19;20839;-83
2022/11/26 06:31:17;;;;;;;17.48;7.60;;;9.30;72.00;;;;;;7396024;19;20019;-84
2022/11/26 06:33:46;;;;;;;20.85;8.10;;;9.30;72.20;;;;;;7377535;19;20380;-83
2022/11/26 06:36:15;;;;;;;21.00;8.77;;;9.40;72.20;;;;;;7377428;19;20352;-83
2022/11/26 06:38:43;;;;;;;30.13;9.93;;;9.40;72.00;;;;;;7376358;19;20584;-83
2022/11/26 06:41:12;;;;;;;38.83;8.73;;;9.40;72.10;;;;;;7376712;19;20461;-84
2022/11/26 06:43:41;;;;;;;18.90;8.00;;;9.40;72.10;;;;;;7398637;19;20023;-84
2022/11/26 06:46:13;;;;;;;23.27;8.68;;;9.40;72.10;;;;;;7373881;19;20014;-84
2022/11/26 06:48:42;;;;;;;22.35;8.35;;;9.40;72.30;;;;;;7373486;19;20082;-84
2022/11/26 06:51:14;;;;;;;22.00;8.98;;;9.40;72.40;;;;;;7374698;19;20781;-84
2022/11/26 06:53:43;;;;;;;26.23;8.15;;;9.40;72.50;;;;;;7373325;19;20465;-84
2022/11/26 06:56:13;;;;;;;24.90;8.15;;;9.40;72.50;;;;;;7373318;19;20026;-84
2022/11/26 06:58:43;;;;;;;23.23;7.68;;;9.40;72.50;;;;;;7397522;19;20117;-84
2022/11/26 07:01:16;;;;;;;22.95;7.85;;;9.40;72.50;;;;;;7375157;19;20015;-84
2022/11/26 07:03:45;;;;;;;24.70;8.18;;;9.40;72.50;;;;;;7371490;19;20776;-83
2022/11/26 07:06:18;;;;;;;19.38;7.60;;;9.40;72.60;;;;;;7370334;19;20082;-84
2022/11/26 07:08:48;;;;;;;23.38;8.50;;;9.40;72.70;;;;;;7372510;19;20006;-85
2022/11/26 07:11:17;;;;;;;21.80;8.00;;;9.50;72.90;;;;;;7374337;19;20440;-85
2022/11/26 07:13:46;;;;;;;17.65;7.22;;;9.50;72.90;;;;;;7393546;19;20114;-79
2022/11/26 07:16:17;;;;;;;23.35;8.43;;;9.50;72.80;;;;;;7396454;19;20035;-85
2022/11/26 07:18:49;;;;;;;;;;;9.50;72.70;;;;;;7376305;19;20354;-84
2022/11/26 07:21:17;;;;;;;;;;;9.60;72.70;;;;;;7376183;19;19925;-84
2022/11/26 07:23:46;;;;;;;26.45;7.95;;;9.60;72.80;;;;;;7375044;19;19915;-84
2022/11/26 07:26:16;;;;;;;18.75;8.35;;;9.50;72.50;;;;;;7377452;19;20014;-85
2022/11/26 07:28:46;;;;;;;23.35;8.10;;;9.50;72.60;;;;;;7399911;19;20015;-84
2022/11/26 07:31:19;;;;;;;25.50;8.63;;;9.50;72.50;;;;;;7375163;19;20018;-84
2022/11/26 07:33:48;;;;;;;22.98;7.50;;;9.50;72.60;;;;;;7377839;19;20014;-84
2022/11/26 07:36:22;;;;;;;23.60;8.77;;;9.50;72.80;;;;;;7379348;19;20029;-83
2022/11/26 07:38:55;;;;;;;22.13;8.38;;;9.50;72.80;;;;;;7379467;19;20042;-84
2022/11/26 07:41:24;;;;;;;20.60;8.38;;;9.60;72.80;;;;;;7379011;19;20434;-84
2022/11/26 07:43:53;;;;;;;34.55;9.85;;;9.50;72.90;;;;;;7379135;19;20055;-85
2022/11/26 07:46:26;;;;;;;25.83;9.25;;;9.50;72.80;;;;;;7406519;19;20125;-85
2022/11/26 07:48:56;;;;;;;25.13;9.45;;;9.60;73.00;;;;;;7384335;19;20042;-84
2022/11/26 07:51:27;;;;;;;26.35;9.02;;;9.60;73.00;;;;;;7382365;19;20011;-85
2022/11/26 07:53:56;;;;;;;20.07;8.53;;;9.60;72.90;;;;;;7378241;19;20019;-85
2022/11/26 07:56:25;;;;;;;29.05;8.80;;;9.60;73.00;;;;;;7383239;19;20105;-85
2022/11/26 07:58:54;;;;;;;27.20;9.00;;;9.60;73.00;;;;;;7383847;19;20473;-82
2022/11/26 08:01:30;;;;;;;28.77;10.68;;;9.60;73.00;;;;;;7398363;19;20102;-83
2022/11/26 08:04:01;;;;;;;25.25;10.18;;;9.60;73.10;;;;;;7375261;19;20042;-83
2022/11/26 08:06:31;;;;;;;43.30;14.35;;;9.70;73.20;;;;;;7375635;19;20018;-83
2022/11/26 08:09:01;;;;;;;39.97;18.05;;;9.70;73.10;;;;;;7382354;19;20083;-82
2022/11/26 08:11:32;;;;;;;35.10;17.20;;;9.70;73.10;;;;;;7381965;19;20021;-85
2022/11/26 08:14:03;;;;;;;39.13;16.92;;;9.70;73.20;;;;;;7384321;19;20074;-84
2022/11/26 08:16:35;;;;;;;35.95;11.82;;;9.70;73.40;;;;;;7401833;19;20039;-85
2022/11/26 08:19:06;;;;;;;26.52;10.40;;;9.70;73.30;;;;;;7378934;19;20006;-84
2022/11/26 08:21:37;;;;;;;28.10;11.35;;;9.80;73.50;;;;;;7377178;19;20342;-85
2022/11/26 08:24:06;;;;;;;34.20;11.45;;;9.80;73.60;;;;;;7381467;19;20360;-85
2022/11/26 08:26:35;;;;;;;35.95;12.57;;;9.80;73.70;;;;;;7378670;19;20070;-84
2022/11/26 08:29:04;;;;;;;21.20;11.35;;;9.80;73.80;;;;;;7383307;19;20085;-84
2022/11/26 08:31:39;;;;;;;33.40;12.32;;;9.90;74.00;;;;;;7400164;19;20024;-84
2022/11/26 08:34:08;;;;;;;37.40;13.82;;;9.90;74.00;;;;;;7379586;19;20010;-84
2022/11/26 08:36:37;;;;;;;30.02;11.77;;;9.90;74.00;;;;;;7377514;19;20010;-83
2022/11/26 08:39:06;;;;;;;28.75;12.77;;;10.00;74.10;;;;;;7377462;19;20375;-83
2022/11/26 08:41:34;;;;;;;27.85;12.45;;;10.00;74.20;;;;;;7379581;19;20044;-83
2022/11/26 08:44:03;;;;;;;27.95;13.05;;;10.00;74.40;;;;;;7382924;19;20118;-84
2022/11/26 08:46:34;;;;;;;32.90;12.63;;;10.10;74.50;;;;;;7401112;19;20429;-85
2022/11/26 08:49:03;;;;;;;32.90;14.32;;;10.10;74.70;;;;;;7380029;19;20855;-85
2022/11/26 08:51:32;;;;;;;32.17;14.93;;;10.10;74.80;;;;;;7380225;19;20435;-83
2022/11/26 08:54:01;;;;;;;34.40;16.45;;;10.20;74.90;;;;;;7379569;19;20035;-84
2022/11/26 08:56:29;;;;;;;42.55;16.00;;;10.20;75.20;;;;;;7377436;19;20022;-83
2022/11/26 08:58:58;;;;;;;34.70;15.23;;;10.20;75.40;;;;;;7378013;19;20022;-83
2022/11/26 09:01:29;;;;;;;42.08;17.58;;;10.30;75.50;;;;;;7401256;19;20019;-83
2022/11/26 09:04:02;;;;;;;36.40;18.15;;;10.30;75.70;;;;;;7379113;19;20078;-83
2022/11/26 09:06:35;;;;;;;42.40;17.73;;;10.30;75.80;;;;;;7377762;19;20437;-83
2022/11/26 09:09:17;;;;;;;38.35;17.73;;;10.40;75.90;;;;;;7380751;19;20639;-83
2022/11/26 09:11:46;;;;;;;;;;;10.40;75.90;;;;;;7377701;19;20035;-84
2022/11/26 09:14:16;;;;;;;45.05;18.33;;;10.50;76.00;;;;;;7374740;19;19938;-85
2022/11/26 09:16:45;;;;;;;40.28;17.92;;;10.50;75.80;;;;;;7400361;19;20073;-85
2022/11/26 09:19:16;;;;;;;39.88;17.27;;;10.50;75.80;;;;;;7380722;19;20035;-83
2022/11/26 09:21:45;;;;;;;43.38;17.58;;;10.50;76.00;;;;;;7380784;19;20085;-84
2022/11/26 09:24:15;;;;;;;46.50;19.50;;;10.60;76.30;;;;;;7380520;19;20142;-83
2022/11/26 09:26:44;;;;;;;44.88;19.90;;;10.60;76.30;;;;;;7380112;19;20010;-83
2022/11/26 09:29:15;;;;;;;51.67;21.02;;;10.70;76.40;;;;;;7379125;19;20027;-83
2022/11/26 09:31:44;;;;;;;49.67;20.45;;;10.70;76.40;;;;;;7401575;19;20010;-84
2022/11/26 09:34:16;;;;;;;52.38;20.55;;;10.70;76.60;;;;;;7377927;19;20521;-83
2022/11/26 09:36:45;;;;;;;52.80;22.42;;;10.70;76.60;;;;;;7377560;19;20081;-84
2022/11/26 09:39:15;;;;;;;54.92;22.90;;;10.80;76.60;;;;;;7379350;19;20086;-84
2022/11/26 09:41:50;;;;;;;46.28;20.80;;;10.80;76.70;;;;;;7381222;19;20037;-83
2022/11/26 09:44:31;;;;;;;53.08;21.20;;;10.80;76.90;;;;;;7384098;19;20017;-85
2022/11/26 09:47:07;;;;;;;55.38;21.08;;;10.80;77.10;;;;;;7398122;19;20007;-87
2022/11/26 09:49:45;;;;;;;52.45;21.67;;;10.80;77.20;;;;;;7411629;19;20007;-87
2022/11/26 09:52:17;;;;;;;52.65;22.83;;;10.90;77.30;;;;;;7384088;19;20481;-82
2022/11/26 09:54:46;;;;;;;;;;;10.90;77.30;;;;;;7382827;19;20011;-90
2022/11/26 09:57:22;;;;;;;48.60;19.33;;;11.00;77.60;;;;;;7391314;19;19939;-89
2022/11/26 09:59:52;;;;;;;55.08;21.52;;;11.00;77.50;;;;;;7389536;19;20011;-88
2022/11/26 10:02:20;;;;;;;55.88;21.90;;;11.00;77.50;;;;;;7380596;19;20011;-80
2022/11/26 10:04:52;;;;;;;54.17;22.02;;;11.10;77.60;;;;;;7380279;19;20030;-81
2022/11/26 10:07:38;;;;;;;;;;;11.10;77.80;;;;;;7408773;19;20026;-81
2022/11/26 10:10:15;;;;;;;58.47;21.95;;;11.20;78.00;;;;;;7386374;19;19926;-81
2022/11/26 10:12:58;;;;;;;60.53;22.25;;;11.10;77.70;;;;;;7390261;19;20011;-82
2022/11/26 10:15:33;;;;;;;63.10;22.52;;;11.10;77.90;;;;;;7388128;19;20006;-82
2022/11/26 10:18:13;;;;;;;53.38;21.70;;;11.20;78.20;;;;;;7387425;19;20090;-82
2022/11/26 10:21:15;;;;;;;48.53;20.23;;;11.20;78.40;;;;;;7389504;19;20007;-78
2022/11/26 10:23:48;;;;;;;33.08;14.95;;;11.20;78.60;;;;;;7384285;19;20018;-78
2022/11/26 10:26:19;;;;;;;52.58;22.63;;;11.30;78.60;;;;;;7384576;19;20022;-79
2022/11/26 10:28:50;;;;;;;312.73;31.25;;;11.30;78.60;;;;;;7379342;19;20025;-79
2022/11/26 10:31:23;;;;;;;55.55;21.35;;;11.30;78.70;;;;;;7399802;19;20055;-81
2022/11/26 10:34:00;;;;;;;57.20;22.33;;;11.30;78.90;;;;;;7378479;19;20020;-80
2022/11/26 10:36:38;;;;;;;52.63;21.52;;;11.40;79.10;;;;;;7380678;19;20442;-81
2022/11/26 10:39:08;;;;;;;62.15;22.95;;;11.40;79.10;;;;;;7381894;19;20014;-83
2022/11/26 10:41:38;;;;;;;60.70;23.33;;;11.40;79.10;;;;;;7391172;19;20014;-80
2022/11/26 10:44:32;;;;;;;63.70;22.92;;;11.40;79.00;;;;;;7400697;19;20024;-80
2022/11/26 10:47:20;;;;;;;58.88;23.58;;;11.50;79.30;;;;;;7358297;19;20014;-80
2022/11/26 10:49:49;;;;;;;67.78;25.13;;;11.50;79.10;;;;;;7380652;19;20014;-79
2022/11/26 10:52:24;;;;;;;58.85;24.83;;;11.50;79.10;;;;;;7379657;19;20027;-81
2022/11/26 10:55:09;;;;;;;66.18;24.38;;;11.50;80.00;;;;;;7403576;19;20049;-80
2022/11/26 10:57:42;;;;;;;53.17;24.23;;;11.50;79.40;;;;;;7381450;19;20310;-83
2022/11/26 11:00:30;;;;;;;59.80;24.75;;;11.60;79.40;;;;;;7381654;19;20015;-82
2022/11/26 11:03:00;;;;;;;58.72;24.88;;;11.60;79.50;;;;;;7381918;19;20078;-81
2022/11/26 11:05:30;;;;;;;69.75;26.83;;;11.60;79.40;;;;;;7380206;19;20015;-81
2022/11/26 11:08:01;;;;;;;72.15;28.13;;;11.60;79.60;;;;;;7381428;19;20014;-81
2022/11/26 11:10:30;;;;;;;69.82;27.42;;;11.60;79.50;;;;;;7381239;19;20123;-82
2022/11/26 11:13:12;;;;;;;67.15;26.08;;;11.60;79.60;;;;;;7403311;19;20440;-81
2022/11/26 11:15:42;;;;;;;67.28;25.70;;;11.70;79.80;;;;;;7381269;19;20010;-81
2022/11/26 11:18:20;;;;;;;64.70;25.73;;;11.70;79.70;;;;;;7381122;19;20018;-81
2022/11/26 11:20:57;;;;;;;63.58;25.27;;;11.70;79.80;;;;;;7393893;19;20059;-84
2022/11/26 11:23:31;;;;;;;67.07;22.48;;;11.70;79.80;;;;;;7400654;19;20011;-80
2022/11/26 11:26:03;;;;;;;47.97;18.27;;;11.70;80.70;;;;;;7394426;19;20023;-80
2022/11/26 11:28:33;;;;;;;40.53;17.30;;;11.70;79.90;;;;;;7393103;19;20035;-80
2022/11/26 11:31:06;;;;;;;58.55;20.50;;;11.80;80.10;;;;;;7417441;19;20037;-80
2022/11/26 11:33:35;;;;;;;68.15;24.58;;;11.80;80.20;;;;;;7385218;19;20039;-80
2022/11/26 11:36:07;;;;;;;64.65;23.55;;;11.80;80.30;;;;;;7375188;19;20062;-81
2022/11/26 11:38:49;;;;;;;64.30;25.50;;;11.80;80.20;;;;;;7376134;19;20022;-80
2022/11/26 11:41:25;;;;;;;72.80;25.67;;;11.80;80.30;;;;;;7379201;19;20497;-80
2022/11/26 11:44:00;;;;;;;63.03;25.45;;;11.80;80.20;;;;;;7389745;19;20019;-80
2022/11/26 11:46:53;;;;;;;61.33;23.30;;;11.80;80.30;;;;;;7394850;19;20050;-80
2022/11/26 11:49:33;;;;;;;55.38;22.63;;;11.80;80.40;;;;;;7386700;19;20028;-80
2022/11/26 11:52:15;;;;;;;61.70;22.77;;;11.90;80.20;;;;;;7405730;19;20085;-80
2022/11/26 11:54:58;;;;;;;66.15;24.85;;;11.90;80.40;;;;;;7384631;19;20425;-81
2022/11/26 11:57:44;;;;;;;60.60;23.58;;;11.90;80.30;;;;;;7384606;19;20015;-81
2022/11/26 12:00:15;;;;;;;57.63;23.98;;;11.90;80.40;;;;;;7384072;19;20077;-81
2022/11/26 12:03:11;;;;;;;73.03;25.48;;;11.90;80.20;;;;;;7383634;19;20513;-80
2022/11/26 12:05:50;;;;;;;43.00;19.95;;;11.90;80.40;;;;;;7390819;19;20112;-81
2022/11/26 12:08:32;;;;;;;62.90;22.88;;;11.90;80.30;;;;;;7390851;19;20021;-81
2022/11/26 12:11:18;;;;;;;57.30;22.63;;;11.90;80.50;;;;;;7385637;19;20075;-81
2022/11/26 12:13:51;;;;;;;51.30;22.30;;;11.90;80.50;;;;;;7386823;19;20034;-80
2022/11/26 12:16:21;;;;;;;51.53;21.48;;;11.90;80.40;;;;;;7388576;19;20018;-80
2022/11/26 12:18:55;;;;;;;122.33;25.83;;;11.90;80.50;;;;;;7408098;19;20022;-80
2022/11/26 12:21:32;;;;;;;520.38;38.83;;;12.00;80.50;;;;;;7384166;19;20026;-80
2022/11/26 12:24:06;;;;;;;51.00;19.23;;;11.90;80.70;;;;;;7383380;19;20024;-81
2022/11/26 12:26:41;;;;;;;40.42;18.63;;;11.90;81.00;;;;;;7387622;19;20015;-80
2022/11/26 12:29:15;;;;;;;58.22;20.15;;;11.90;80.90;;;;;;7386607;19;20089;-81
2022/11/26 12:31:49;;;;;;;55.47;21.88;;;11.90;80.80;;;;;;7383456;19;20331;-81
2022/11/26 12:34:26;;;;;;;59.70;21.15;;;12.00;81.70;;;;;;7384675;19;20086;-80
2022/11/26 12:36:59;;;;;;;56.92;22.98;;;12.00;80.90;;;;;;7401609;19;20441;-81
2022/11/26 12:39:37;;;;;;;54.92;23.63;;;12.00;81.00;;;;;;7379543;19;20094;-81
2022/11/26 12:42:17;;;;;;;45.72;17.42;;;12.00;81.00;;;;;;7381605;19;20018;-81
2022/11/26 12:44:50;;;;;;;39.80;12.88;;;12.00;81.00;;;;;;7382726;19;20347;-81
2022/11/26 12:47:25;;;;;;;35.45;12.82;;;12.00;80.80;;;;;;7389847;19;20007;-80
2022/11/26 12:50:08;;;;;;;34.85;13.15;;;12.00;81.00;;;;;;7387618;19;20018;-79
2022/11/26 12:52:44;;;;;;;39.45;13.15;;;11.90;81.20;;;;;;7380434;19;20048;-79
2022/11/26 12:55:20;;;;;;;41.70;12.35;;;12.00;81.30;;;;;;7380464;19;20043;-79
2022/11/26 12:57:55;;;;;;;29.60;11.30;;;12.00;81.30;;;;;;7402633;19;20509;-80
2022/11/26 13:00:27;;;;;;;24.88;10.70;;;12.00;81.70;;;;;;7385005;19;20026;-80
2022/11/26 13:02:56;;;;;;;31.98;11.57;;;12.10;81.30;;;;;;7383862;19;20014;-80